sensor_id;sensor_type;location;lat;lon;timestamp;P1;durP1;ratioP1;P2;durP2;ratioP2
46036;SDS011;31769;49.304;8.428;2023-08-07T00:02:19;4.50;;;1.60;;
46036;SDS011;31769;49.304;8.428;2023-08-07T00:05:20;5.88;;;1.80;;
46036;SDS011;31769;49.304;8.428;2023-08-07T00:08:20;9.13;;;1.63;;
46036;SDS011;31769;49.304;8.428;2023-08-07T00:11:21;5.15;;;1.38;;
46036;SDS011;31769;49.304;8.428;2023-08-07T00:14:22;5.50;;;1.75;;
46036;SDS011;31769;49.304;8.428;2023-08-07T00:17:22;7.75;;;1.55;;
46036;SDS011;31769;49.304;8.428;2023-08-07T00:20:23;12.82;;;2.05;;
46036;SDS011;31769;49.304;8.428;2023-08-07T00:23:24;3.47;;;1.92;;
46036;SDS011;31769;49.304;8.428;2023-08-07T00:26:25;4.95;;;1.65;;
46036;SDS011;31769;49.304;8.428;2023-08-07T00:29:26;6.47;;;1.50;;
46036;SDS011;31769;49.304;8.428;2023-08-07T00:32:27;7.40;;;1.70;;
46036;SDS011;31769;49.304;8.428;2023-08-07T00:35:28;4.55;;;1.85;;
46036;SDS011;31769;49.304;8.428;2023-08-07T00:38:28;7.50;;;1.73;;
46036;SDS011;31769;49.304;8.428;2023-08-07T00:41:29;3.75;;;1.70;;
46036;SDS011;31769;49.304;8.428;2023-08-07T00:44:30;3.28;;;1.70;;
46036;SDS011;31769;49.304;8.428;2023-08-07T00:47:31;6.28;;;2.13;;
46036;SDS011;31769;49.304;8.428;2023-08-07T00:50:32;6.28;;;1.80;;
46036;SDS011;31769;49.304;8.428;2023-08-07T00:53:33;5.72;;;1.55;;
46036;SDS011;31769;49.304;8.428;2023-08-07T00:56:37;8.13;;;1.50;;
46036;SDS011;31769;49.304;8.428;2023-08-07T00:59:39;4.97;;;1.65;;
46036;SDS011;31769;49.304;8.428;2023-08-07T01:02:40;6.18;;;1.65;;
46036;SDS011;31769;49.304;8.428;2023-08-07T01:05:41;5.13;;;1.80;;
46036;SDS011;31769;49.304;8.428;2023-08-07T01:08:42;5.50;;;1.90;;
46036;SDS011;31769;49.304;8.428;2023-08-07T01:18:30;5.45;;;1.95;;
46036;SDS011;31769;49.304;8.428;2023-08-07T01:21:32;2.80;;;1.45;;
46036;SDS011;31769;49.304;8.428;2023-08-07T01:24:34;4.47;;;1.52;;
46036;SDS011;31769;49.304;8.428;2023-08-07T01:27:37;6.10;;;1.90;;
46036;SDS011;31769;49.304;8.428;2023-08-07T01:30:46;4.20;;;1.40;;
46036;SDS011;31769;49.304;8.428;2023-08-07T01:33:55;7.13;;;2.30;;
46036;SDS011;31769;49.304;8.428;2023-08-07T01:36:59;5.55;;;1.92;;
46036;SDS011;31769;49.304;8.428;2023-08-07T01:40:03;6.53;;;1.50;;
46036;SDS011;31769;49.304;8.428;2023-08-07T01:43:05;5.93;;;1.83;;
46036;SDS011;31769;49.304;8.428;2023-08-07T01:46:06;6.38;;;1.80;;
46036;SDS011;31769;49.304;8.428;2023-08-07T01:49:07;4.68;;;1.70;;
46036;SDS011;31769;49.304;8.428;2023-08-07T01:52:08;7.38;;;1.90;;
46036;SDS011;31769;49.304;8.428;2023-08-07T01:55:09;6.88;;;1.80;;
46036;SDS011;31769;49.304;8.428;2023-08-07T01:58:09;6.03;;;1.92;;
46036;SDS011;31769;49.304;8.428;2023-08-07T02:01:10;6.75;;;1.80;;
46036;SDS011;31769;49.304;8.428;2023-08-07T02:04:11;5.68;;;1.75;;
46036;SDS011;31769;49.304;8.428;2023-08-07T02:07:12;5.57;;;1.55;;
46036;SDS011;31769;49.304;8.428;2023-08-07T02:13:44;6.20;;;1.45;;
46036;SDS011;31769;49.304;8.428;2023-08-07T02:16:44;4.53;;;1.48;;
46036;SDS011;31769;49.304;8.428;2023-08-07T02:19:46;7.15;;;1.60;;
46036;SDS011;31769;49.304;8.428;2023-08-07T02:22:47;5.93;;;1.50;;
46036;SDS011;31769;49.304;8.428;2023-08-07T02:25:48;4.65;;;1.83;;
46036;SDS011;31769;49.304;8.428;2023-08-07T02:28:49;4.68;;;1.83;;
46036;SDS011;31769;49.304;8.428;2023-08-07T02:31:49;7.63;;;1.92;;
46036;SDS011;31769;49.304;8.428;2023-08-07T02:34:50;4.28;;;1.40;;
46036;SDS011;31769;49.304;8.428;2023-08-07T02:37:51;4.93;;;1.58;;
46036;SDS011;31769;49.304;8.428;2023-08-07T02:40:52;6.50;;;1.83;;
46036;SDS011;31769;49.304;8.428;2023-08-07T02:43:52;9.45;;;2.00;;
46036;SDS011;31769;49.304;8.428;2023-08-07T02:46:53;4.90;;;1.70;;
46036;SDS011;31769;49.304;8.428;2023-08-07T02:49:54;5.13;;;1.83;;
46036;SDS011;31769;49.304;8.428;2023-08-07T02:52:55;5.93;;;1.75;;
46036;SDS011;31769;49.304;8.428;2023-08-07T02:55:56;3.47;;;1.70;;
46036;SDS011;31769;49.304;8.428;2023-08-07T02:58:57;5.55;;;1.75;;
46036;SDS011;31769;49.304;8.428;2023-08-07T03:01:58;5.60;;;1.60;;
46036;SDS011;31769;49.304;8.428;2023-08-07T03:04:59;4.97;;;2.08;;
46036;SDS011;31769;49.304;8.428;2023-08-07T03:08:00;9.65;;;1.77;;
46036;SDS011;31769;49.304;8.428;2023-08-07T03:11:00;5.88;;;1.40;;
46036;SDS011;31769;49.304;8.428;2023-08-07T03:14:01;5.53;;;1.88;;
46036;SDS011;31769;49.304;8.428;2023-08-07T03:17:03;4.07;;;1.50;;
46036;SDS011;31769;49.304;8.428;2023-08-07T03:20:04;5.60;;;2.00;;
46036;SDS011;31769;49.304;8.428;2023-08-07T03:23:06;4.50;;;1.60;;
46036;SDS011;31769;49.304;8.428;2023-08-07T03:26:08;8.57;;;1.92;;
46036;SDS011;31769;49.304;8.428;2023-08-07T03:29:12;5.47;;;1.98;;
46036;SDS011;31769;49.304;8.428;2023-08-07T03:32:13;6.35;;;1.90;;
46036;SDS011;31769;49.304;8.428;2023-08-07T03:35:13;8.15;;;1.80;;
46036;SDS011;31769;49.304;8.428;2023-08-07T03:38:15;3.35;;;1.63;;
46036;SDS011;31769;49.304;8.428;2023-08-07T03:41:17;5.43;;;2.20;;
46036;SDS011;31769;49.304;8.428;2023-08-07T03:44:18;6.68;;;2.08;;
46036;SDS011;31769;49.304;8.428;2023-08-07T03:47:19;5.00;;;1.80;;
46036;SDS011;31769;49.304;8.428;2023-08-07T03:50:20;7.53;;;1.83;;
46036;SDS011;31769;49.304;8.428;2023-08-07T03:53:20;5.88;;;1.80;;
46036;SDS011;31769;49.304;8.428;2023-08-07T03:56:22;6.55;;;1.98;;
46036;SDS011;31769;49.304;8.428;2023-08-07T03:59:25;6.50;;;1.98;;
46036;SDS011;31769;49.304;8.428;2023-08-07T04:02:25;8.32;;;2.05;;
46036;SDS011;31769;49.304;8.428;2023-08-07T04:05:27;4.38;;;1.80;;
46036;SDS011;31769;49.304;8.428;2023-08-07T04:08:28;6.20;;;1.75;;
46036;SDS011;31769;49.304;8.428;2023-08-07T04:11:29;8.52;;;2.17;;
46036;SDS011;31769;49.304;8.428;2023-08-07T04:14:30;6.13;;;1.83;;
46036;SDS011;31769;49.304;8.428;2023-08-07T04:17:31;6.95;;;2.03;;
46036;SDS011;31769;49.304;8.428;2023-08-07T04:20:31;7.28;;;1.73;;
46036;SDS011;31769;49.304;8.428;2023-08-07T04:23:32;5.15;;;1.92;;
46036;SDS011;31769;49.304;8.428;2023-08-07T04:26:33;7.30;;;2.38;;
46036;SDS011;31769;49.304;8.428;2023-08-07T04:29:34;4.22;;;1.75;;
46036;SDS011;31769;49.304;8.428;2023-08-07T04:32:35;7.03;;;2.17;;
46036;SDS011;31769;49.304;8.428;2023-08-07T04:35:36;5.50;;;1.80;;
46036;SDS011;31769;49.304;8.428;2023-08-07T04:38:36;4.97;;;1.90;;
46036;SDS011;31769;49.304;8.428;2023-08-07T04:41:37;8.38;;;2.22;;
46036;SDS011;31769;49.304;8.428;2023-08-07T04:44:38;6.93;;;2.00;;
46036;SDS011;31769;49.304;8.428;2023-08-07T04:47:38;5.95;;;2.03;;
46036;SDS011;31769;49.304;8.428;2023-08-07T04:50:39;8.40;;;2.10;;
46036;SDS011;31769;49.304;8.428;2023-08-07T04:53:40;6.13;;;2.60;;
46036;SDS011;31769;49.304;8.428;2023-08-07T04:56:41;7.22;;;2.00;;
46036;SDS011;31769;49.304;8.428;2023-08-07T04:59:44;8.10;;;2.10;;
46036;SDS011;31769;49.304;8.428;2023-08-07T05:02:45;4.93;;;2.28;;
46036;SDS011;31769;49.304;8.428;2023-08-07T05:05:45;7.72;;;2.33;;
46036;SDS011;31769;49.304;8.428;2023-08-07T05:08:46;5.68;;;2.10;;
46036;SDS011;31769;49.304;8.428;2023-08-07T05:11:47;6.57;;;2.13;;
46036;SDS011;31769;49.304;8.428;2023-08-07T05:14:48;7.35;;;2.42;;
46036;SDS011;31769;49.304;8.428;2023-08-07T05:17:49;5.70;;;2.05;;
46036;SDS011;31769;49.304;8.428;2023-08-07T05:20:51;4.57;;;1.60;;
46036;SDS011;31769;49.304;8.428;2023-08-07T05:23:52;4.13;;;1.95;;
46036;SDS011;31769;49.304;8.428;2023-08-07T05:26:55;6.07;;;2.25;;
46036;SDS011;31769;49.304;8.428;2023-08-07T05:29:56;4.85;;;1.83;;
46036;SDS011;31769;49.304;8.428;2023-08-07T05:32:56;6.82;;;1.98;;
46036;SDS011;31769;49.304;8.428;2023-08-07T05:35:57;7.18;;;2.35;;
46036;SDS011;31769;49.304;8.428;2023-08-07T05:38:58;2.85;;;2.00;;
46036;SDS011;31769;49.304;8.428;2023-08-07T05:41:58;6.00;;;1.90;;
46036;SDS011;31769;49.304;8.428;2023-08-07T05:44:59;4.47;;;2.38;;
46036;SDS011;31769;49.304;8.428;2023-08-07T05:48:00;6.30;;;2.00;;
46036;SDS011;31769;49.304;8.428;2023-08-07T05:51:01;6.15;;;2.15;;
46036;SDS011;31769;49.304;8.428;2023-08-07T05:54:02;5.68;;;1.90;;
46036;SDS011;31769;49.304;8.428;2023-08-07T05:57:03;5.40;;;2.25;;
46036;SDS011;31769;49.304;8.428;2023-08-07T06:00:04;3.13;;;1.60;;
46036;SDS011;31769;49.304;8.428;2023-08-07T06:03:12;5.90;;;2.03;;
46036;SDS011;31769;49.304;8.428;2023-08-07T06:06:12;5.90;;;2.15;;
46036;SDS011;31769;49.304;8.428;2023-08-07T06:09:13;5.28;;;2.00;;
46036;SDS011;31769;49.304;8.428;2023-08-07T06:12:17;6.13;;;1.92;;
46036;SDS011;31769;49.304;8.428;2023-08-07T06:15:18;3.60;;;2.00;;
46036;SDS011;31769;49.304;8.428;2023-08-07T06:18:20;3.30;;;1.85;;
46036;SDS011;31769;49.304;8.428;2023-08-07T06:21:20;3.17;;;2.08;;
46036;SDS011;31769;49.304;8.428;2023-08-07T06:24:21;4.70;;;2.03;;
46036;SDS011;31769;49.304;8.428;2023-08-07T06:27:22;3.88;;;1.90;;
46036;SDS011;31769;49.304;8.428;2023-08-07T06:30:23;5.00;;;1.98;;
46036;SDS011;31769;49.304;8.428;2023-08-07T06:33:24;4.80;;;1.90;;
46036;SDS011;31769;49.304;8.428;2023-08-07T06:36:24;5.53;;;2.25;;
46036;SDS011;31769;49.304;8.428;2023-08-07T06:39:25;4.80;;;2.10;;
46036;SDS011;31769;49.304;8.428;2023-08-07T06:42:26;5.47;;;2.10;;
46036;SDS011;31769;49.304;8.428;2023-08-07T06:45:27;6.13;;;2.00;;
46036;SDS011;31769;49.304;8.428;2023-08-07T06:48:28;4.43;;;1.90;;
46036;SDS011;31769;49.304;8.428;2023-08-07T06:51:29;4.95;;;2.40;;
46036;SDS011;31769;49.304;8.428;2023-08-07T06:54:29;7.05;;;2.40;;
46036;SDS011;31769;49.304;8.428;2023-08-07T06:57:30;4.13;;;2.05;;
46036;SDS011;31769;49.304;8.428;2023-08-07T07:00:31;5.13;;;2.30;;
46036;SDS011;31769;49.304;8.428;2023-08-07T07:03:32;7.30;;;2.72;;
46036;SDS011;31769;49.304;8.428;2023-08-07T07:06:33;4.80;;;2.20;;
46036;SDS011;31769;49.304;8.428;2023-08-07T07:09:34;3.17;;;1.80;;
46036;SDS011;31769;49.304;8.428;2023-08-07T07:12:35;4.70;;;2.08;;
46036;SDS011;31769;49.304;8.428;2023-08-07T07:15:36;3.92;;;1.65;;
46036;SDS011;31769;49.304;8.428;2023-08-07T07:18:36;5.97;;;2.00;;
46036;SDS011;31769;49.304;8.428;2023-08-07T07:21:37;5.80;;;2.13;;
46036;SDS011;31769;49.304;8.428;2023-08-07T07:24:38;3.42;;;1.75;;
46036;SDS011;31769;49.304;8.428;2023-08-07T07:27:39;5.50;;;2.05;;
46036;SDS011;31769;49.304;8.428;2023-08-07T07:30:40;3.65;;;1.83;;
46036;SDS011;31769;49.304;8.428;2023-08-07T07:33:41;7.20;;;2.17;;
46036;SDS011;31769;49.304;8.428;2023-08-07T07:36:42;5.18;;;2.25;;
46036;SDS011;31769;49.304;8.428;2023-08-07T07:39:43;5.75;;;1.88;;
46036;SDS011;31769;49.304;8.428;2023-08-07T07:42:44;4.18;;;1.90;;
46036;SDS011;31769;49.304;8.428;2023-08-07T07:45:44;4.43;;;1.90;;
46036;SDS011;31769;49.304;8.428;2023-08-07T07:48:45;6.60;;;1.90;;
46036;SDS011;31769;49.304;8.428;2023-08-07T07:51:46;4.57;;;2.03;;
46036;SDS011;31769;49.304;8.428;2023-08-07T07:54:46;2.55;;;1.75;;
46036;SDS011;31769;49.304;8.428;2023-08-07T07:57:47;4.15;;;1.80;;
46036;SDS011;31769;49.304;8.428;2023-08-07T08:00:48;5.53;;;1.80;;
46036;SDS011;31769;49.304;8.428;2023-08-07T08:03:49;5.15;;;2.00;;
46036;SDS011;31769;49.304;8.428;2023-08-07T08:06:50;5.70;;;1.85;;
46036;SDS011;31769;49.304;8.428;2023-08-07T08:09:51;4.28;;;1.85;;
46036;SDS011;31769;49.304;8.428;2023-08-07T08:12:52;4.93;;;1.83;;
46036;SDS011;31769;49.304;8.428;2023-08-07T08:15:55;4.30;;;1.30;;
46036;SDS011;31769;49.304;8.428;2023-08-07T08:18:55;4.35;;;1.55;;
46036;SDS011;31769;49.304;8.428;2023-08-07T08:21:56;6.53;;;1.85;;
46036;SDS011;31769;49.304;8.428;2023-08-07T08:24:57;4.00;;;1.90;;
46036;SDS011;31769;49.304;8.428;2023-08-07T08:27:58;6.45;;;1.65;;
46036;SDS011;31769;49.304;8.428;2023-08-07T08:30:59;5.10;;;1.35;;
46036;SDS011;31769;49.304;8.428;2023-08-07T08:34:00;2.42;;;1.65;;
46036;SDS011;31769;49.304;8.428;2023-08-07T08:37:01;4.95;;;1.77;;
46036;SDS011;31769;49.304;8.428;2023-08-07T08:40:02;4.03;;;1.40;;
46036;SDS011;31769;49.304;8.428;2023-08-07T08:43:02;5.43;;;1.55;;
46036;SDS011;31769;49.304;8.428;2023-08-07T08:46:05;3.53;;;1.42;;
46036;SDS011;31769;49.304;8.428;2023-08-07T08:49:06;3.35;;;1.50;;
46036;SDS011;31769;49.304;8.428;2023-08-07T08:52:09;2.38;;;1.30;;
46036;SDS011;31769;49.304;8.428;2023-08-07T08:55:11;4.25;;;1.63;;
46036;SDS011;31769;49.304;8.428;2023-08-07T08:58:13;2.20;;;1.15;;
46036;SDS011;31769;49.304;8.428;2023-08-07T09:01:17;3.25;;;1.20;;
46036;SDS011;31769;49.304;8.428;2023-08-07T09:04:18;2.05;;;1.05;;
46036;SDS011;31769;49.304;8.428;2023-08-07T09:07:19;4.28;;;1.02;;
46036;SDS011;31769;49.304;8.428;2023-08-07T09:10:20;5.80;;;1.45;;
46036;SDS011;31769;49.304;8.428;2023-08-07T09:13:22;4.57;;;1.42;;
46036;SDS011;31769;49.304;8.428;2023-08-07T09:16:24;4.55;;;1.50;;
46036;SDS011;31769;49.304;8.428;2023-08-07T09:19:27;2.65;;;1.33;;
46036;SDS011;31769;49.304;8.428;2023-08-07T09:22:28;5.50;;;1.38;;
46036;SDS011;31769;49.304;8.428;2023-08-07T09:25:32;3.33;;;1.30;;
46036;SDS011;31769;49.304;8.428;2023-08-07T09:28:33;2.50;;;1.10;;
46036;SDS011;31769;49.304;8.428;2023-08-07T09:31:36;1.92;;;1.30;;
46036;SDS011;31769;49.304;8.428;2023-08-07T09:34:41;4.45;;;1.50;;
46036;SDS011;31769;49.304;8.428;2023-08-07T09:37:43;2.90;;;1.23;;
46036;SDS011;31769;49.304;8.428;2023-08-07T09:40:44;3.63;;;1.17;;
46036;SDS011;31769;49.304;8.428;2023-08-07T09:43:45;3.47;;;1.50;;
46036;SDS011;31769;49.304;8.428;2023-08-07T09:46:45;2.53;;;1.35;;
46036;SDS011;31769;49.304;8.428;2023-08-07T09:49:47;4.82;;;1.70;;
46036;SDS011;31769;49.304;8.428;2023-08-07T09:52:49;5.85;;;1.48;;
46036;SDS011;31769;49.304;8.428;2023-08-07T09:55:51;4.05;;;1.50;;
46036;SDS011;31769;49.304;8.428;2023-08-07T09:58:53;3.78;;;1.45;;
46036;SDS011;31769;49.304;8.428;2023-08-07T10:01:55;2.90;;;1.50;;
46036;SDS011;31769;49.304;8.428;2023-08-07T10:04:56;2.75;;;1.15;;
46036;SDS011;31769;49.304;8.428;2023-08-07T10:07:58;3.72;;;1.88;;
46036;SDS011;31769;49.304;8.428;2023-08-07T10:10:59;1.63;;;1.17;;
46036;SDS011;31769;49.304;8.428;2023-08-07T10:14:01;5.45;;;1.67;;
46036;SDS011;31769;49.304;8.428;2023-08-07T10:17:02;4.88;;;1.85;;
46036;SDS011;31769;49.304;8.428;2023-08-07T10:20:04;3.72;;;1.30;;
46036;SDS011;31769;49.304;8.428;2023-08-07T10:23:08;4.07;;;1.50;;
46036;SDS011;31769;49.304;8.428;2023-08-07T10:26:09;3.25;;;1.55;;
46036;SDS011;31769;49.304;8.428;2023-08-07T10:29:13;8.00;;;2.08;;
46036;SDS011;31769;49.304;8.428;2023-08-07T10:32:18;6.40;;;1.48;;
46036;SDS011;31769;49.304;8.428;2023-08-07T10:35:25;3.83;;;1.67;;
46036;SDS011;31769;49.304;8.428;2023-08-07T10:38:29;4.40;;;1.55;;
46036;SDS011;31769;49.304;8.428;2023-08-07T10:41:37;4.65;;;1.42;;
46036;SDS011;31769;49.304;8.428;2023-08-07T10:44:44;7.32;;;1.90;;
46036;SDS011;31769;49.304;8.428;2023-08-07T10:51:05;3.88;;;1.58;;
46036;SDS011;31769;49.304;8.428;2023-08-07T10:54:06;5.72;;;3.00;;
46036;SDS011;31769;49.304;8.428;2023-08-07T10:57:09;6.15;;;2.80;;
46036;SDS011;31769;49.304;8.428;2023-08-07T11:00:11;6.72;;;2.75;;
46036;SDS011;31769;49.304;8.428;2023-08-07T11:03:19;4.50;;;1.92;;
46036;SDS011;31769;49.304;8.428;2023-08-07T11:06:28;4.72;;;2.00;;
46036;SDS011;31769;49.304;8.428;2023-08-07T11:09:33;2.42;;;1.55;;
46036;SDS011;31769;49.304;8.428;2023-08-07T11:12:34;5.10;;;1.83;;
46036;SDS011;31769;49.304;8.428;2023-08-07T11:15:36;5.05;;;1.88;;
46036;SDS011;31769;49.304;8.428;2023-08-07T11:18:37;4.25;;;1.65;;
46036;SDS011;31769;49.304;8.428;2023-08-07T11:21:41;4.85;;;2.67;;
46036;SDS011;31769;49.304;8.428;2023-08-07T11:24:43;3.25;;;1.80;;
46036;SDS011;31769;49.304;8.428;2023-08-07T11:27:43;3.33;;;1.65;;
46036;SDS011;31769;49.304;8.428;2023-08-07T11:30:45;3.00;;;1.42;;
46036;SDS011;31769;49.304;8.428;2023-08-07T11:33:52;3.95;;;1.63;;
46036;SDS011;31769;49.304;8.428;2023-08-07T11:36:55;2.17;;;1.48;;
46036;SDS011;31769;49.304;8.428;2023-08-07T11:40:01;3.53;;;1.50;;
46036;SDS011;31769;49.304;8.428;2023-08-07T11:43:03;2.72;;;1.40;;
46036;SDS011;31769;49.304;8.428;2023-08-07T11:46:04;3.05;;;1.50;;
46036;SDS011;31769;49.304;8.428;2023-08-07T11:49:06;3.33;;;1.70;;
46036;SDS011;31769;49.304;8.428;2023-08-07T11:52:09;6.38;;;1.83;;
46036;SDS011;31769;49.304;8.428;2023-08-07T11:55:10;4.43;;;2.28;;
46036;SDS011;31769;49.304;8.428;2023-08-07T11:58:13;5.53;;;2.15;;
46036;SDS011;31769;49.304;8.428;2023-08-07T12:01:15;2.70;;;1.65;;
46036;SDS011;31769;49.304;8.428;2023-08-07T12:04:18;2.47;;;1.58;;
46036;SDS011;31769;49.304;8.428;2023-08-07T12:07:19;2.55;;;1.50;;
46036;SDS011;31769;49.304;8.428;2023-08-07T12:10:26;2.50;;;1.55;;
46036;SDS011;31769;49.304;8.428;2023-08-07T12:13:27;2.45;;;1.60;;
46036;SDS011;31769;49.304;8.428;2023-08-07T12:16:32;5.00;;;1.45;;
46036;SDS011;31769;49.304;8.428;2023-08-07T12:19:39;7.93;;;1.77;;
46036;SDS011;31769;49.304;8.428;2023-08-07T12:22:43;3.08;;;1.40;;
46036;SDS011;31769;49.304;8.428;2023-08-07T12:25:44;2.78;;;0.95;;
46036;SDS011;31769;49.304;8.428;2023-08-07T12:28:45;2.58;;;0.98;;
46036;SDS011;31769;49.304;8.428;2023-08-07T12:31:46;0.98;;;0.90;;
46036;SDS011;31769;49.304;8.428;2023-08-07T12:34:46;2.47;;;0.85;;
46036;SDS011;31769;49.304;8.428;2023-08-07T12:37:50;3.53;;;0.57;;
46036;SDS011;31769;49.304;8.428;2023-08-07T12:40:50;0.80;;;0.70;;
46036;SDS011;31769;49.304;8.428;2023-08-07T12:43:51;1.25;;;0.60;;
46036;SDS011;31769;49.304;8.428;2023-08-07T12:46:53;1.60;;;0.50;;
46036;SDS011;31769;49.304;8.428;2023-08-07T12:49:54;4.13;;;0.60;;
46036;SDS011;31769;49.304;8.428;2023-08-07T12:52:54;1.80;;;0.75;;
46036;SDS011;31769;49.304;8.428;2023-08-07T12:55:55;2.78;;;0.50;;
46036;SDS011;31769;49.304;8.428;2023-08-07T12:58:56;3.15;;;0.88;;
46036;SDS011;31769;49.304;8.428;2023-08-07T13:01:57;3.33;;;0.50;;
46036;SDS011;31769;49.304;8.428;2023-08-07T13:04:57;3.00;;;0.70;;
46036;SDS011;31769;49.304;8.428;2023-08-07T13:07:58;2.17;;;0.88;;
46036;SDS011;31769;49.304;8.428;2023-08-07T13:10:59;0.85;;;0.73;;
46036;SDS011;31769;49.304;8.428;2023-08-07T13:14:00;0.75;;;0.75;;
46036;SDS011;31769;49.304;8.428;2023-08-07T13:17:00;3.38;;;0.88;;
46036;SDS011;31769;49.304;8.428;2023-08-07T13:20:02;3.35;;;0.70;;
46036;SDS011;31769;49.304;8.428;2023-08-07T13:26:09;5.32;;;0.80;;
46036;SDS011;31769;49.304;8.428;2023-08-07T13:29:10;1.20;;;0.70;;
46036;SDS011;31769;49.304;8.428;2023-08-07T13:32:11;2.30;;;0.60;;
46036;SDS011;31769;49.304;8.428;2023-08-07T13:35:13;1.75;;;0.93;;
46036;SDS011;31769;49.304;8.428;2023-08-07T13:38:13;1.00;;;0.60;;
46036;SDS011;31769;49.304;8.428;2023-08-07T13:41:15;2.05;;;0.80;;
46036;SDS011;31769;49.304;8.428;2023-08-07T13:44:16;2.13;;;0.43;;
46036;SDS011;31769;49.304;8.428;2023-08-07T13:47:17;0.95;;;0.45;;
46036;SDS011;31769;49.304;8.428;2023-08-07T13:50:20;4.85;;;0.63;;
46036;SDS011;31769;49.304;8.428;2023-08-07T13:53:21;2.38;;;0.68;;
46036;SDS011;31769;49.304;8.428;2023-08-07T13:56:24;0.60;;;0.40;;
46036;SDS011;31769;49.304;8.428;2023-08-07T13:59:25;1.10;;;0.65;;
46036;SDS011;31769;49.304;8.428;2023-08-07T14:02:26;0.70;;;0.30;;
46036;SDS011;31769;49.304;8.428;2023-08-07T14:05:26;1.05;;;0.45;;
46036;SDS011;31769;49.304;8.428;2023-08-07T14:08:27;0.88;;;0.50;;
46036;SDS011;31769;49.304;8.428;2023-08-07T14:11:28;0.88;;;0.50;;
46036;SDS011;31769;49.304;8.428;2023-08-07T14:14:31;0.77;;;0.38;;
46036;SDS011;31769;49.304;8.428;2023-08-07T14:17:31;2.03;;;0.60;;
46036;SDS011;31769;49.304;8.428;2023-08-07T14:20:32;0.65;;;0.40;;
46036;SDS011;31769;49.304;8.428;2023-08-07T14:23:33;2.20;;;0.60;;
46036;SDS011;31769;49.304;8.428;2023-08-07T14:26:34;0.73;;;0.35;;
46036;SDS011;31769;49.304;8.428;2023-08-07T14:29:34;0.77;;;0.30;;
46036;SDS011;31769;49.304;8.428;2023-08-07T14:32:35;0.52;;;0.43;;
46036;SDS011;31769;49.304;8.428;2023-08-07T14:35:36;1.02;;;0.50;;
46036;SDS011;31769;49.304;8.428;2023-08-07T14:38:37;0.55;;;0.30;;
46036;SDS011;31769;49.304;8.428;2023-08-07T14:41:37;2.28;;;0.47;;
46036;SDS011;31769;49.304;8.428;2023-08-07T14:44:38;1.00;;;0.63;;
46036;SDS011;31769;49.304;8.428;2023-08-07T14:47:39;0.60;;;0.40;;
46036;SDS011;31769;49.304;8.428;2023-08-07T14:50:39;1.35;;;0.60;;
46036;SDS011;31769;49.304;8.428;2023-08-07T14:53:40;1.02;;;0.60;;
46036;SDS011;31769;49.304;8.428;2023-08-07T14:56:41;1.35;;;0.77;;
46036;SDS011;31769;49.304;8.428;2023-08-07T14:59:42;1.23;;;0.57;;
46036;SDS011;31769;49.304;8.428;2023-08-07T15:02:42;2.97;;;0.93;;
46036;SDS011;31769;49.304;8.428;2023-08-07T15:05:43;3.70;;;0.98;;
46036;SDS011;31769;49.304;8.428;2023-08-07T15:08:44;3.47;;;0.93;;
46036;SDS011;31769;49.304;8.428;2023-08-07T15:11:47;2.70;;;1.10;;
46036;SDS011;31769;49.304;8.428;2023-08-07T15:14:49;2.78;;;1.10;;
46036;SDS011;31769;49.304;8.428;2023-08-07T15:17:50;1.50;;;0.90;;
46036;SDS011;31769;49.304;8.428;2023-08-07T15:20:50;2.65;;;1.10;;
46036;SDS011;31769;49.304;8.428;2023-08-07T15:23:51;3.22;;;1.10;;
46036;SDS011;31769;49.304;8.428;2023-08-07T15:26:52;2.45;;;0.90;;
46036;SDS011;31769;49.304;8.428;2023-08-07T15:29:53;1.65;;;0.75;;
46036;SDS011;31769;49.304;8.428;2023-08-07T15:32:53;1.08;;;0.60;;
46036;SDS011;31769;49.304;8.428;2023-08-07T15:35:54;2.78;;;0.70;;
46036;SDS011;31769;49.304;8.428;2023-08-07T15:38:55;0.68;;;0.68;;
46036;SDS011;31769;49.304;8.428;2023-08-07T15:41:57;1.38;;;1.00;;
46036;SDS011;31769;49.304;8.428;2023-08-07T15:44:57;3.55;;;1.02;;
46036;SDS011;31769;49.304;8.428;2023-08-07T15:47:58;3.67;;;1.30;;
46036;SDS011;31769;49.304;8.428;2023-08-07T15:50:59;1.65;;;1.10;;
46036;SDS011;31769;49.304;8.428;2023-08-07T15:53:59;1.55;;;1.10;;
46036;SDS011;31769;49.304;8.428;2023-08-07T15:57:00;1.45;;;1.00;;
46036;SDS011;31769;49.304;8.428;2023-08-07T16:00:01;4.05;;;1.20;;
46036;SDS011;31769;49.304;8.428;2023-08-07T16:03:13;2.63;;;0.75;;
46036;SDS011;31769;49.304;8.428;2023-08-07T16:06:13;0.98;;;0.77;;
46036;SDS011;31769;49.304;8.428;2023-08-07T16:09:14;1.75;;;0.50;;
46036;SDS011;31769;49.304;8.428;2023-08-07T16:12:15;0.73;;;0.73;;
46036;SDS011;31769;49.304;8.428;2023-08-07T16:15:17;1.05;;;0.75;;
46036;SDS011;31769;49.304;8.428;2023-08-07T16:18:18;1.05;;;0.60;;
46036;SDS011;31769;49.304;8.428;2023-08-07T16:21:19;3.28;;;1.55;;
46036;SDS011;31769;49.304;8.428;2023-08-07T16:24:20;1.75;;;0.90;;
46036;SDS011;31769;49.304;8.428;2023-08-07T16:27:21;1.42;;;1.30;;
46036;SDS011;31769;49.304;8.428;2023-08-07T16:30:22;4.75;;;1.70;;
46036;SDS011;31769;49.304;8.428;2023-08-07T16:33:23;2.05;;;1.50;;
46036;SDS011;31769;49.304;8.428;2023-08-07T16:36:23;2.72;;;1.23;;
46036;SDS011;31769;49.304;8.428;2023-08-07T16:39:24;2.75;;;1.10;;
46036;SDS011;31769;49.304;8.428;2023-08-07T16:42:25;1.13;;;0.80;;
46036;SDS011;31769;49.304;8.428;2023-08-07T16:45:26;0.88;;;0.50;;
46036;SDS011;31769;49.304;8.428;2023-08-07T16:48:26;1.00;;;0.60;;
46036;SDS011;31769;49.304;8.428;2023-08-07T16:51:27;0.90;;;0.52;;
46036;SDS011;31769;49.304;8.428;2023-08-07T16:54:28;2.58;;;1.02;;
46036;SDS011;31769;49.304;8.428;2023-08-07T16:57:28;1.60;;;0.80;;
46036;SDS011;31769;49.304;8.428;2023-08-07T17:00:29;2.05;;;0.90;;
46036;SDS011;31769;49.304;8.428;2023-08-07T17:03:30;1.85;;;0.82;;
46036;SDS011;31769;49.304;8.428;2023-08-07T17:06:31;1.58;;;1.08;;
46036;SDS011;31769;49.304;8.428;2023-08-07T17:09:31;4.07;;;0.98;;
46036;SDS011;31769;49.304;8.428;2023-08-07T17:12:32;4.53;;;1.27;;
46036;SDS011;31769;49.304;8.428;2023-08-07T17:15:33;3.45;;;0.75;;
46036;SDS011;31769;49.304;8.428;2023-08-07T17:18:35;1.05;;;0.88;;
46036;SDS011;31769;49.304;8.428;2023-08-07T17:21:36;2.03;;;0.90;;
46036;SDS011;31769;49.304;8.428;2023-08-07T17:24:36;1.50;;;1.10;;
46036;SDS011;31769;49.304;8.428;2023-08-07T17:27:37;2.67;;;1.10;;
46036;SDS011;31769;49.304;8.428;2023-08-07T17:30:38;3.10;;;1.10;;
46036;SDS011;31769;49.304;8.428;2023-08-07T17:33:38;4.45;;;0.82;;
46036;SDS011;31769;49.304;8.428;2023-08-07T17:36:39;0.77;;;0.77;;
46036;SDS011;31769;49.304;8.428;2023-08-07T17:39:40;1.63;;;0.90;;
46036;SDS011;31769;49.304;8.428;2023-08-07T17:42:41;3.05;;;0.77;;
46036;SDS011;31769;49.304;8.428;2023-08-07T17:45:42;1.75;;;0.80;;
46036;SDS011;31769;49.304;8.428;2023-08-07T17:48:42;2.17;;;1.20;;
46036;SDS011;31769;49.304;8.428;2023-08-07T17:51:44;3.20;;;1.20;;
46036;SDS011;31769;49.304;8.428;2023-08-07T17:54:45;1.63;;;1.20;;
46036;SDS011;31769;49.304;8.428;2023-08-07T17:57:50;5.50;;;1.17;;
46036;SDS011;31769;49.304;8.428;2023-08-07T18:00:51;1.70;;;1.42;;
46036;SDS011;31769;49.304;8.428;2023-08-07T18:03:52;1.15;;;1.00;;
46036;SDS011;31769;49.304;8.428;2023-08-07T18:06:55;6.22;;;1.27;;
46036;SDS011;31769;49.304;8.428;2023-08-07T18:09:56;5.05;;;1.02;;
46036;SDS011;31769;49.304;8.428;2023-08-07T18:12:57;2.33;;;1.05;;
46036;SDS011;31769;49.304;8.428;2023-08-07T18:15:58;1.85;;;1.23;;
46036;SDS011;31769;49.304;8.428;2023-08-07T18:18:58;1.27;;;1.13;;
46036;SDS011;31769;49.304;8.428;2023-08-07T18:21:59;0.95;;;0.70;;
46036;SDS011;31769;49.304;8.428;2023-08-07T18:25:00;2.47;;;1.50;;
46036;SDS011;31769;49.304;8.428;2023-08-07T18:28:01;3.33;;;0.93;;
46036;SDS011;31769;49.304;8.428;2023-08-07T18:31:02;2.25;;;1.10;;